地図

経路データ

SID SEASON NUMBER BASIN SUBBASIN NAME ISO_TIME NATURE LAT LON WMO_WIND WMO_PRES WMO_AGENCY TRACK_TYPE DIST2LAND LANDFALL IFLAG USA_AGENCY USA_ATCF_ID USA_LAT USA_LON USA_RECORD USA_STATUS USA_WIND USA_PRES USA_SSHS USA_R34_NE USA_R34_SE USA_R34_SW USA_R34_NW USA_R50_NE USA_R50_SE USA_R50_SW USA_R50_NW USA_R64_NE USA_R64_SE USA_R64_SW USA_R64_NW USA_POCI USA_ROCI USA_RMW USA_EYE TOKYO_LAT TOKYO_LON TOKYO_GRADE TOKYO_WIND TOKYO_PRES TOKYO_R50_DIR TOKYO_R50_LONG TOKYO_R50_SHORT TOKYO_R30_DIR TOKYO_R30_LONG TOKYO_R30_SHORT TOKYO_LAND CMA_LAT CMA_LON CMA_CAT CMA_WIND CMA_PRES HKO_LAT HKO_LON HKO_CAT HKO_WIND HKO_PRES NEWDELHI_LAT NEWDELHI_LON NEWDELHI_GRADE NEWDELHI_WIND NEWDELHI_PRES NEWDELHI_CI NEWDELHI_DP NEWDELHI_POCI REUNION_LAT REUNION_LON REUNION_TYPE REUNION_WIND REUNION_PRES REUNION_TNUM REUNION_CI REUNION_RMW REUNION_R34_NE REUNION_R34_SE REUNION_R34_SW REUNION_R34_NW REUNION_R50_NE REUNION_R50_SE REUNION_R50_SW REUNION_R50_NW REUNION_R64_NE REUNION_R64_SE REUNION_R64_SW REUNION_R64_NW BOM_LAT BOM_LON BOM_TYPE BOM_WIND BOM_PRES BOM_TNUM BOM_CI BOM_RMW BOM_R34_NE BOM_R34_SE BOM_R34_SW BOM_R34_NW BOM_R50_NE BOM_R50_SE BOM_R50_SW BOM_R50_NW BOM_R64_NE BOM_R64_SE BOM_R64_SW BOM_R64_NW BOM_ROCI BOM_POCI BOM_EYE BOM_POS_METHOD BOM_PRES_METHOD NADI_LAT NADI_LON NADI_CAT NADI_WIND NADI_PRES WELLINGTON_LAT WELLINGTON_LON WELLINGTON_WIND WELLINGTON_PRES DS824_LAT DS824_LON DS824_STAGE DS824_WIND DS824_PRES TD9636_LAT TD9636_LON TD9636_STAGE TD9636_WIND TD9636_PRES TD9635_LAT TD9635_LON TD9635_WIND TD9635_PRES TD9635_ROCI NEUMANN_LAT NEUMANN_LON NEUMANN_CLASS NEUMANN_WIND NEUMANN_PRES MLC_LAT MLC_LON MLC_CLASS MLC_WIND MLC_PRES USA_GUST BOM_GUST BOM_GUST_PER REUNION_GUST REUNION_GUST_PER USA_SEAHGT USA_SEARAD_NE USA_SEARAD_SE USA_SEARAD_SW USA_SEARAD_NW STORM_SPEED STORM_DIR
1960257N22267 1960 69 NA GM ETHEL 1960-09-12 18:00:00 TS 22.0000 -93.0000 25 hurdat_atl main 296 291 O_____________ hurdat_atl AL061960 22.0000 -93.0000 TD 25 -1 4 38
1960257N22267 1960 69 NA GM ETHEL 1960-09-12 21:00:00 TS 22.1725 -92.8501 main 295 281 P_____________ AL061960 22.1725 -92.8501 TD 25 -1 4 43
1960257N22267 1960 69 NA GM ETHEL 1960-09-13 00:00:00 TS 22.3000 -92.7000 25 hurdat_atl main 281 272 O_____________ hurdat_atl AL061960 22.3000 -92.7000 TD 25 -1 3 56
1960257N22267 1960 69 NA GM ETHEL 1960-09-13 03:00:00 TS 22.3575 -92.5499 main 269 261 P_____________ AL061960 22.3575 -92.5499 TD 27 -1 3 70
1960257N22267 1960 69 NA GM ETHEL 1960-09-13 06:00:00 TS 22.4000 -92.4000 30 hurdat_atl main 261 252 O_____________ hurdat_atl AL061960 22.4000 -92.4000 TD 30 -1 3 65
1960257N22267 1960 69 NA GM ETHEL 1960-09-13 09:00:00 TS 22.4925 -92.2425 main 250 250 P_____________ AL061960 22.4925 -92.2425 TD 32 -1 3 54
1960257N22267 1960 69 NA GM ETHEL 1960-09-13 12:00:00 TS 22.6000 -92.1000 35 hurdat_atl main 250 242 O_____________ hurdat_atl AL061960 22.6000 -92.1000 TS 35 0 3 49
1960257N22267 1960 69 NA GM ETHEL 1960-09-13 15:00:00 TS 22.6925 -91.9925 main 250 243 P_____________ AL061960 22.6925 -91.9925 TS 37 0 3 43
1960257N22267 1960 69 NA GM ETHEL 1960-09-13 18:00:00 TS 22.8000 -91.9000 40 hurdat_atl main 251 251 O_____________ hurdat_atl AL061960 22.8000 -91.9000 TS 40 0 3 33
1960257N22267 1960 69 NA GM ETHEL 1960-09-13 21:00:00 TS 22.9425 -91.8149 main 253 253 P_____________ AL061960 22.9425 -91.8149 TS 42 0 4 31
1960257N22267 1960 69 NA GM ETHEL 1960-09-14 00:00:00 TS 23.1000 -91.7000 45 hurdat_atl main 266 260 O_____________ hurdat_atl AL061960 23.1000 -91.7000 TS 45 0 4 43
1960257N22267 1960 69 NA GM ETHEL 1960-09-14 03:00:00 TS 23.2350 -91.5224 main 265 265 P_____________ AL061960 23.2350 -91.5224 TS 52 0 5 51
1960257N22267 1960 69 NA GM ETHEL 1960-09-14 06:00:00 TS 23.4000 -91.3000 60 hurdat_atl main 276 273 O_____________ hurdat_atl AL061960 23.4000 -91.3000 TS 60 0 5 53
1960257N22267 1960 69 NA GM ETHEL 1960-09-14 09:00:00 TS 23.5449 -91.0791 main 280 280 P_____________ AL061960 23.5449 -91.0791 TS 70 1 7 43
1960257N22267 1960 69 NA GM ETHEL 1960-09-14 12:00:00 TS 23.9000 -90.8000 80 hurdat_atl main 315 315 O_____________ hurdat_atl AL061960 23.9000 -90.8000 HU 80 1 13 28
1960257N22267 1960 69 NA GM ETHEL 1960-09-14 15:00:00 TS 24.6751 -90.4231 main 394 389 P_____________ AL061960 24.6751 -90.4231 HU 90 2 19 23
1960257N22267 1960 69 NA GM ETHEL 1960-09-14 18:00:00 TS 25.6000 -90.0000 100 974 hurdat_atl main 389 305 O_____________ hurdat_atl AL061960 25.6000 -90.0000 HU 100 974 3 19 24
1960257N22267 1960 69 NA GM ETHEL 1960-09-14 21:00:00 TS 26.3801 -89.5701 main 294 212 P_____________ AL061960 26.3801 -89.5701 HU 100 975 3 17 26
1960257N22267 1960 69 NA GM ETHEL 1960-09-15 00:00:00 TS 27.1000 -89.2000 100 976 hurdat_atl main 212 134 O_____________ hurdat_atl AL061960 27.1000 -89.2000 HU 100 976 3 15 21
1960257N22267 1960 69 NA GM ETHEL 1960-09-15 03:00:00 TS 27.7873 -88.9471 main 135 73 P_____________ AL061960 27.7873 -88.9471 HU 90 978 2 14 15
1960257N22267 1960 69 NA GM ETHEL 1960-09-15 06:00:00 TS 28.4000 -88.8000 80 981 hurdat_atl main 73 36 O_____________ hurdat_atl AL061960 28.4000 -88.8000 HU 80 981 1 12 10
1960257N22267 1960 69 NA GM ETHEL 1960-09-15 09:00:00 TS 28.9449 -88.7122 main 36 29 P_____________ AL061960 28.9449 -88.7122 HU 77 983 1 10 5
1960257N22267 1960 69 NA GM ETHEL 1960-09-15 12:00:00 TS 29.4000 -88.7000 75 985 hurdat_atl main 44 44 O_____________ hurdat_atl AL061960 29.4000 -88.7000 HU 75 985 1 8 0
1960257N22267 1960 69 NA GM ETHEL 1960-09-15 15:00:00 TS 29.7806 -88.7057 main 55 24 P_____________ AL061960 29.7806 -88.7057 HU 72 984 1 7 353
1960257N22267 1960 69 NA GM ETHEL 1960-09-15 18:00:00 TS 30.1000 -88.8000 70 984 hurdat_atl main 24 0 O_____________ hurdat_atl AL061960 30.1000 -88.8000 HU 70 984 1 7 338
1960257N22267 1960 69 NA GM ETHEL 1960-09-15 21:00:00 TS 30.4000 -89.0000 70 980 hurdat_atl main 0 0 O_____________ hurdat_atl AL061960 30.4000 -89.0000 L HU 70 980 1 6 332
1960257N22267 1960 69 NA NA ETHEL 1960-09-16 00:00:00 TS 30.6000 -89.1000 55 hurdat_atl main 0 0 O_____________ hurdat_atl AL061960 30.6000 -89.1000 TS 55 0 5 351
1960257N22267 1960 69 NA NA ETHEL 1960-09-16 03:00:00 TS 30.8659 -89.0808 main 0 0 P_____________ AL061960 30.8659 -89.0808 TS 47 0 6 8
1960257N22267 1960 69 NA NA ETHEL 1960-09-16 06:00:00 TS 31.2000 -89.0000 40 hurdat_atl main 0 0 O_____________ hurdat_atl AL061960 31.2000 -89.0000 TS 40 0 7 8
1960257N22267 1960 69 NA NA ETHEL 1960-09-16 09:00:00 TS 31.5775 -88.9574 main 0 0 P_____________ AL061960 31.5775 -88.9574 TS 35 0 8 6
1960257N22267 1960 69 NA NA ETHEL 1960-09-16 12:00:00 TS 32.0000 -88.9000 30 1007 hurdat_atl main 0 0 O_____________ hurdat_atl AL061960 32.0000 -88.9000 TD 30 1007 -1 9 8
1960257N22267 1960 69 NA NA ETHEL 1960-09-16 15:00:00 TS 32.4350 -88.8149 main 0 0 P_____________ AL061960 32.4350 -88.8149 TD 27 1008 -1 9 10
1960257N22267 1960 69 NA NA ETHEL 1960-09-16 18:00:00 TS 32.9000 -88.7000 25 1010 hurdat_atl main 0 0 O_____________ hurdat_atl AL061960 32.9000 -88.7000 TD 25 1010 -1 10 12
1960257N22267 1960 69 NA NA ETHEL 1960-09-16 21:00:00 TS 33.3925 -88.5648 main 0 0 P_____________ AL061960 33.3925 -88.5648 TD 25 1010 -1 10 14
1960257N22267 1960 69 NA NA ETHEL 1960-09-17 00:00:00 TS 33.9000 -88.4000 25 1011 hurdat_atl main 0 0 O_____________ hurdat_atl AL061960 33.9000 -88.4000 TD 25 1011 -1 10 16
1960257N22267 1960 69 NA NA ETHEL 1960-09-17 03:00:00 TS 34.3999 -88.2221 main 0 0 P_____________ AL061960 34.3999 -88.2221 TD 22 1011 -1 11 18
1960257N22267 1960 69 NA NA ETHEL 1960-09-17 06:00:00 TS 34.9000 -88.0000 20 1012 hurdat_atl main 0 0 O_____________ hurdat_atl AL061960 34.9000 -88.0000 TD 20 1012 -1 11 22
1960257N22267 1960 69 NA NA ETHEL 1960-09-17 09:00:00 TS 35.4074 -87.7297 main 0 0 P_____________ AL061960 35.4074 -87.7297 TD 20 1012 -1 11 26
1960257N22267 1960 69 NA NA ETHEL 1960-09-17 12:00:00 TS 35.9000 -87.4000 20 1013 hurdat_atl main 0 0 O_____________ hurdat_atl AL061960 35.9000 -87.4000 TD 20 1013 -1 11 31
1960257N22267 1960 69 NA NA ETHEL 1960-09-17 15:00:00 TS 36.3603 -87.0159 main 0 0 P_____________ AL061960 36.3603 -87.0159 TD 20 1014 -1 11 36
1960257N22267 1960 69 NA NA ETHEL 1960-09-17 18:00:00 TS 36.8000 -86.6000 20 1015 hurdat_atl main 0 O_____________ hurdat_atl AL061960 36.8000 -86.6000 TD 20 1015 -1 11 37

IBTrACS Databaseについて

本データベースは、米国NOAAが公開する1842年以降の世界の熱帯低気圧のベストトラックデータアーカイブInternational Best Track Archive for Climate Stewardship (IBTrACS)を、ウェブで閲覧しやすい形式に変換したものです。

最終更新日:2021-10-21